createdAt,value
2023-03-26T00:01:27.477Z,0.80
2023-03-26T00:03:55.292Z,0.90
2023-03-26T00:06:27.243Z,0.77
2023-03-26T00:08:55.847Z,0.80
2023-03-26T00:11:24.214Z,0.80
2023-03-26T00:13:53.713Z,0.80
2023-03-26T00:16:20.973Z,0.80
2023-03-26T00:18:49.107Z,0.70
2023-03-26T00:21:18.103Z,0.80
2023-03-26T00:23:45.560Z,0.70
2023-03-26T00:26:13.009Z,0.80
2023-03-26T00:28:41.865Z,0.90
2023-03-26T00:31:12.288Z,0.85
2023-03-26T00:33:40.897Z,1.25
2023-03-26T00:36:11.194Z,0.80
2023-03-26T00:38:41.748Z,1.13
2023-03-26T00:41:17.646Z,1.00
2023-03-26T00:43:53.334Z,0.90
2023-03-26T00:46:20.628Z,0.90
2023-03-26T00:48:50.844Z,0.88
2023-03-26T00:51:19.347Z,0.90
2023-03-26T00:53:48.347Z,0.90
2023-03-26T00:56:15.808Z,0.77
2023-03-26T00:58:43.125Z,0.80
2023-03-26T01:01:16.641Z,0.80
2023-03-26T01:03:57.095Z,1.30
2023-03-26T01:06:36.760Z,1.40
2023-03-26T01:09:37.194Z,1.00
2023-03-26T01:12:07.499Z,0.90
2023-03-26T01:14:34.735Z,1.30
2023-03-26T01:17:04.225Z,1.00
2023-03-26T01:19:44.882Z,0.70
2023-03-26T01:22:18.296Z,1.00
2023-03-26T01:24:56.978Z,0.70
2023-03-26T01:27:47.434Z,0.60
2023-03-26T01:30:28.469Z,0.90
2023-03-26T01:33:26.515Z,0.70
2023-03-26T01:36:08.469Z,0.80
2023-03-26T01:38:53.598Z,0.70
2023-03-26T01:41:48.308Z,0.70
2023-03-26T01:44:35.154Z,0.70
2023-03-26T01:47:02.291Z,0.70
2023-03-26T01:49:32.321Z,1.00
2023-03-26T01:51:59.454Z,0.80
2023-03-26T01:54:34.005Z,0.90
2023-03-26T01:57:22.838Z,1.00
2023-03-26T02:00:15.296Z,0.70
2023-03-26T02:03:04.017Z,0.60
2023-03-26T02:05:35.952Z,0.70
2023-03-26T02:08:16.756Z,0.70
2023-03-26T02:10:46.218Z,0.70
2023-03-26T02:13:13.865Z,0.70
2023-03-26T02:15:41.548Z,0.70
2023-03-26T02:18:11.086Z,0.77
2023-03-26T02:20:38.100Z,0.70
2023-03-26T02:23:05.862Z,0.70
2023-03-26T02:25:35.401Z,0.60
2023-03-26T02:28:02.895Z,0.70
2023-03-26T02:30:30.124Z,0.70
2023-03-26T02:33:02.504Z,0.60
2023-03-26T02:35:46.310Z,0.70
2023-03-26T02:38:14.719Z,0.70
2023-03-26T02:40:42.686Z,0.65
2023-03-26T02:43:09.936Z,0.70
2023-03-26T02:45:37.536Z,0.70
2023-03-26T02:48:08.164Z,0.70
2023-03-26T02:50:55.625Z,0.70
2023-03-26T02:53:44.201Z,0.70
2023-03-26T02:56:34.317Z,0.70
2023-03-26T02:59:15.113Z,0.70
2023-03-26T03:01:45.170Z,0.70
2023-03-26T03:04:18.141Z,0.70
2023-03-26T03:06:46.802Z,0.70
2023-03-26T03:09:50.807Z,0.68
2023-03-26T03:12:41.658Z,0.70
2023-03-26T03:15:09.672Z,0.70
2023-03-26T03:17:36.736Z,0.70
2023-03-26T03:20:07.127Z,0.60
2023-03-26T03:22:36.269Z,0.70
2023-03-26T03:25:14.476Z,0.70
2023-03-26T03:27:42.971Z,0.77
2023-03-26T03:30:16.367Z,0.80
2023-03-26T03:32:46.421Z,0.80
2023-03-26T03:35:21.873Z,0.80
2023-03-26T03:37:54.552Z,0.77
2023-03-26T03:40:25.371Z,0.70
2023-03-26T03:42:53.485Z,0.70
2023-03-26T03:45:29.930Z,0.70
2023-03-26T03:48:23.475Z,0.70
2023-03-26T03:50:54.090Z,0.70
2023-03-26T03:53:26.461Z,0.70
2023-03-26T03:55:57.055Z,0.70
2023-03-26T03:58:34.884Z,0.60
2023-03-26T04:01:11.341Z,0.70
2023-03-26T04:03:58.815Z,0.60
2023-03-26T04:09:34.765Z,0.70
2023-03-26T04:12:17.534Z,0.70
2023-03-26T04:15:33.038Z,0.70
2023-03-26T04:18:43.421Z,0.70
2023-03-26T04:35:04.245Z,0.70
2023-03-26T05:26:17.457Z,0.70
2023-03-26T05:28:46.446Z,0.70
2023-03-26T05:31:31.301Z,0.70
2023-03-26T05:34:04.574Z,0.60
2023-03-26T05:45:52.748Z,0.70
2023-03-26T05:48:44.982Z,0.63
2023-03-26T05:53:57.408Z,0.60
2023-03-26T05:56:45.145Z,0.70
2023-03-26T05:59:35.103Z,0.70
2023-03-26T06:02:22.325Z,0.70
2023-03-26T06:05:12.876Z,0.70
2023-03-26T06:08:08.779Z,0.70
2023-03-26T06:11:08.618Z,0.70
2023-03-26T06:14:01.152Z,0.70
2023-03-26T06:16:44.582Z,0.70
2023-03-26T06:23:02.209Z,0.60
2023-03-26T06:25:49.857Z,0.60
2023-03-26T06:28:37.429Z,0.70
2023-03-26T06:31:39.925Z,0.70
2023-03-26T06:34:38.979Z,0.68
2023-03-26T06:37:08.984Z,0.70
2023-03-26T06:39:40.862Z,0.60
2023-03-26T06:42:20.171Z,0.70
2023-03-26T06:45:05.682Z,0.70
2023-03-26T06:47:36.843Z,0.70
2023-03-26T06:50:51.802Z,0.70
2023-03-26T06:53:57.497Z,0.68
2023-03-26T06:57:05.856Z,0.65
2023-03-26T06:59:57.667Z,0.70
2023-03-26T07:02:50.723Z,0.70
2023-03-26T07:05:43.909Z,0.70
2023-03-26T07:08:31.071Z,0.70
2023-03-26T07:11:21.353Z,0.70
2023-03-26T07:14:19.463Z,0.70
2023-03-26T07:16:54.717Z,0.70
2023-03-26T07:19:34.873Z,0.70
2023-03-26T07:22:02.416Z,0.70
2023-03-26T07:24:48.462Z,0.60
2023-03-26T07:28:11.685Z,0.70
2023-03-26T07:31:07.614Z,0.70
2023-03-26T07:34:36.255Z,0.70
2023-03-26T07:37:54.910Z,0.70
2023-03-26T07:40:31.752Z,0.70
2023-03-26T07:43:47.201Z,0.70
2023-03-26T07:46:39.692Z,0.60
2023-03-26T07:49:36.729Z,0.70
2023-03-26T07:55:48.196Z,0.70
2023-03-26T08:03:01.458Z,0.80
2023-03-26T08:05:54.568Z,0.70
2023-03-26T08:08:48.614Z,0.60
2023-03-26T08:11:55.006Z,0.70
2023-03-26T08:17:58.743Z,0.70
2023-03-26T08:20:41.694Z,0.70
2023-03-26T08:23:33.489Z,0.70
2023-03-26T08:26:22.958Z,0.70
2023-03-26T08:28:58.072Z,0.70
2023-03-26T08:31:33.656Z,0.70
2023-03-26T08:34:01.559Z,0.60
2023-03-26T08:36:51.471Z,0.80
2023-03-26T08:39:22.465Z,0.70
2023-03-26T08:42:21.277Z,0.70
2023-03-26T08:45:21.480Z,0.60
2023-03-26T08:48:42.961Z,0.75
2023-03-26T08:51:33.335Z,0.70
2023-03-26T08:54:24.403Z,0.70
2023-03-26T08:57:13.480Z,0.70
2023-03-26T09:00:01.276Z,0.80
2023-03-26T09:03:02.282Z,0.70
2023-03-26T09:05:46.324Z,0.70
2023-03-26T09:08:30.120Z,0.70
2023-03-26T09:11:35.718Z,0.70
2023-03-26T09:14:30.633Z,0.70
2023-03-26T09:17:16.331Z,0.70
2023-03-26T09:20:05.021Z,0.70
2023-03-26T09:22:59.811Z,0.70
2023-03-26T09:25:40.015Z,0.80
2023-03-26T09:28:22.227Z,0.70
2023-03-26T09:31:27.235Z,0.80
2023-03-26T09:34:32.549Z,0.80
2023-03-26T09:37:20.141Z,0.80
2023-03-26T09:40:09.106Z,0.80
2023-03-26T09:42:53.319Z,0.70
2023-03-26T09:45:29.547Z,0.70
2023-03-26T09:48:27.176Z,0.70
2023-03-26T09:51:09.175Z,0.70
2023-03-26T09:53:58.076Z,0.70
2023-03-26T09:56:43.650Z,0.63
2023-03-26T09:59:32.331Z,0.70
2023-03-26T10:02:45.933Z,0.70
2023-03-26T10:05:29.940Z,0.70
2023-03-26T10:08:15.199Z,0.65
2023-03-26T10:14:03.813Z,0.60
2023-03-26T10:19:32.667Z,0.70
2023-03-26T10:22:35.362Z,0.70
2023-03-26T10:36:08.525Z,0.70
2023-03-26T10:39:11.032Z,0.70
2023-03-26T10:42:31.533Z,0.70
2023-03-26T10:45:30.781Z,0.70
2023-03-26T10:51:55.512Z,0.70
2023-03-26T10:54:33.127Z,0.70
2023-03-26T10:57:01.367Z,0.60
2023-03-26T10:59:42.244Z,0.70
2023-03-26T11:02:41.503Z,0.60
2023-03-26T11:05:41.059Z,0.70
2023-03-26T11:08:51.028Z,0.60
2023-03-26T11:11:31.210Z,0.70
2023-03-26T11:14:04.900Z,0.70
2023-03-26T11:17:39.702Z,0.73
2023-03-26T11:27:15.363Z,0.70
2023-03-26T11:30:39.022Z,0.80
2023-03-26T11:33:11.452Z,0.70
2023-03-26T11:35:41.846Z,0.60
2023-03-26T11:38:53.777Z,0.70
2023-03-26T11:59:06.701Z,0.70
2023-03-26T12:37:38.851Z,0.70
2023-03-26T12:40:44.766Z,0.70
2023-03-26T12:44:52.815Z,0.70
2023-03-26T13:08:21.624Z,0.70
2023-03-26T13:14:11.469Z,0.70
2023-03-26T13:39:22.681Z,0.70
2023-03-26T13:43:03.069Z,0.70
2023-03-26T13:50:13.758Z,0.70
2023-03-26T13:53:06.025Z,0.70
2023-03-26T13:56:20.034Z,0.70
2023-03-26T13:59:18.644Z,0.70
2023-03-26T14:01:56.829Z,0.70
2023-03-26T14:04:44.830Z,0.70
2023-03-26T14:07:53.058Z,0.68
2023-03-26T14:14:03.885Z,0.75
2023-03-26T14:16:59.915Z,0.70
2023-03-26T14:20:13.798Z,0.70
2023-03-26T14:22:49.319Z,0.70
2023-03-26T14:25:59.899Z,0.73
2023-03-26T14:28:52.032Z,0.60
2023-03-26T14:31:29.483Z,0.60
2023-03-26T14:37:30.350Z,0.70
2023-03-26T14:40:21.231Z,0.70
2023-03-26T14:46:29.148Z,0.70
2023-03-26T14:49:21.966Z,0.70
2023-03-26T14:52:00.002Z,0.63
2023-03-26T14:54:29.994Z,0.70
2023-03-26T15:00:52.688Z,0.70
2023-03-26T15:04:03.153Z,0.70
2023-03-26T15:07:10.860Z,0.70
2023-03-26T15:19:14.689Z,0.70
2023-03-26T15:22:03.241Z,0.70
2023-03-26T15:25:21.557Z,0.70
2023-03-26T15:28:37.139Z,0.70
2023-03-26T15:31:13.459Z,0.70
2023-03-26T15:37:54.448Z,0.70
2023-03-26T15:45:19.055Z,0.70
2023-03-26T15:48:13.325Z,0.70
2023-03-26T15:51:00.943Z,0.70
2023-03-26T16:00:59.372Z,0.70
2023-03-26T16:03:49.872Z,0.70
2023-03-26T16:06:44.726Z,0.70
2023-03-26T16:09:25.590Z,0.77
2023-03-26T16:12:44.099Z,0.65
2023-03-26T16:18:15.947Z,0.70
2023-03-26T16:24:09.240Z,0.70
2023-03-26T16:31:51.046Z,0.70
2023-03-26T16:38:27.626Z,0.68
2023-03-26T16:55:29.782Z,0.70
2023-03-26T16:58:09.590Z,0.60
2023-03-26T17:00:56.100Z,0.60
2023-03-26T17:04:00.446Z,0.70
2023-03-26T17:07:10.818Z,0.70
2023-03-26T17:10:14.837Z,0.60
2023-03-26T17:12:54.218Z,0.60
2023-03-26T17:15:59.112Z,0.60
2023-03-26T17:19:13.570Z,0.70
2023-03-26T17:22:29.438Z,0.60
2023-03-26T17:25:07.061Z,0.70
2023-03-26T17:28:48.787Z,0.70
2023-03-26T17:31:47.441Z,0.70
2023-03-26T17:34:37.760Z,0.70
2023-03-26T17:37:36.872Z,0.60
2023-03-26T17:41:14.322Z,0.70
2023-03-26T17:43:53.020Z,0.80
2023-03-26T17:46:40.709Z,0.70
2023-03-26T17:55:33.263Z,0.70
2023-03-26T17:58:08.780Z,0.70
2023-03-26T18:04:16.144Z,0.70
2023-03-26T18:06:54.642Z,0.80
2023-03-26T18:10:01.829Z,0.60
2023-03-26T18:15:39.477Z,0.70
2023-03-26T18:18:20.602Z,0.70
2023-03-26T18:20:55.902Z,0.70
2023-03-26T18:23:55.205Z,0.70
2023-03-26T18:26:43.509Z,0.70
2023-03-26T18:29:34.788Z,0.70
2023-03-26T18:32:23.801Z,0.70
2023-03-26T18:35:34.460Z,0.70
2023-03-26T18:38:09.145Z,0.70
2023-03-26T18:40:44.282Z,0.70
2023-03-26T18:43:32.282Z,0.70
2023-03-26T18:46:42.453Z,0.70
2023-03-26T18:49:18.696Z,0.70
2023-03-26T18:51:55.978Z,0.60
2023-03-26T18:54:34.410Z,0.80
2023-03-26T18:57:15.741Z,0.80
2023-03-26T18:59:45.765Z,0.80
2023-03-26T19:02:14.032Z,0.80
2023-03-26T19:04:46.146Z,0.70
2023-03-26T19:07:27.121Z,0.60
2023-03-26T19:09:57.493Z,0.60
2023-03-26T19:12:31.046Z,0.70
2023-03-26T19:15:18.856Z,0.70
2023-03-26T19:17:57.610Z,0.70
2023-03-26T19:20:28.411Z,0.70
2023-03-26T19:23:05.308Z,0.80
2023-03-26T19:25:39.361Z,0.70
2023-03-26T19:28:21.404Z,0.80
2023-03-26T19:30:53.929Z,0.70
2023-03-26T19:33:22.877Z,0.60
2023-03-26T19:36:01.755Z,0.60
2023-03-26T19:38:38.976Z,0.70
2023-03-26T19:41:06.200Z,0.70
2023-03-26T19:43:36.476Z,0.70
2023-03-26T19:46:03.711Z,0.70
2023-03-26T19:48:46.247Z,0.73
2023-03-26T19:51:26.193Z,0.70
2023-03-26T19:53:56.152Z,0.80
2023-03-26T19:56:25.689Z,0.70
2023-03-26T19:58:53.624Z,0.70
2023-03-26T20:01:26.872Z,0.70
2023-03-26T20:04:02.611Z,0.70
2023-03-26T20:06:42.352Z,0.80
2023-03-26T20:09:16.440Z,0.80
2023-03-26T20:11:43.801Z,0.80
2023-03-26T20:14:17.785Z,0.77
2023-03-26T20:16:45.999Z,0.80
2023-03-26T20:19:15.260Z,0.80
2023-03-26T20:21:42.957Z,0.70
2023-03-26T20:24:15.900Z,0.80
2023-03-26T20:26:46.882Z,0.80
2023-03-26T20:29:15.184Z,0.80
2023-03-26T20:31:45.268Z,0.73
2023-03-26T20:34:20.043Z,0.80
2023-03-26T20:39:15.189Z,0.90
2023-03-26T20:44:38.121Z,0.90
2023-03-26T20:50:06.057Z,0.90
2023-03-26T20:52:37.162Z,0.90
2023-03-26T20:55:16.114Z,0.90
2023-03-26T20:57:48.762Z,0.88
2023-03-26T21:00:23.607Z,0.90
2023-03-26T21:02:53.497Z,0.80
2023-03-26T21:05:25.889Z,0.90
2023-03-26T21:07:59.045Z,0.80
2023-03-26T21:10:31.798Z,0.80
2023-03-26T21:13:04.874Z,0.80
2023-03-26T21:15:37.926Z,0.80
2023-03-26T21:18:05.741Z,0.80
2023-03-26T21:20:34.847Z,0.80
2023-03-26T21:23:11.642Z,0.90
2023-03-26T21:25:44.322Z,0.80
2023-03-26T21:28:32.242Z,0.90
2023-03-26T21:31:14.576Z,0.90
2023-03-26T21:33:42.920Z,0.80
2023-03-26T21:36:11.257Z,0.70
2023-03-26T21:38:38.941Z,0.80
2023-03-26T21:41:09.898Z,0.80
2023-03-26T21:43:40.445Z,0.80
2023-03-26T21:46:08.343Z,0.70
2023-03-26T21:48:40.912Z,0.80
2023-03-26T21:51:15.367Z,0.80
2023-03-26T21:53:45.527Z,0.80
2023-03-26T21:56:38.262Z,0.90
2023-03-26T21:59:13.350Z,0.90
2023-03-26T22:01:49.519Z,0.80
2023-03-26T22:04:41.682Z,0.80
2023-03-26T22:07:17.018Z,0.80
2023-03-26T22:09:45.157Z,0.80
2023-03-26T22:12:12.719Z,0.80
2023-03-26T22:14:39.693Z,0.80
2023-03-26T22:17:06.957Z,0.85
2023-03-26T22:19:34.770Z,0.85
2023-03-26T22:22:05.448Z,0.90
2023-03-26T22:24:32.984Z,0.90
2023-03-26T22:27:00.091Z,0.80
2023-03-26T22:29:28.630Z,0.80
2023-03-26T22:31:59.580Z,0.90
2023-03-26T22:34:27.706Z,0.75
2023-03-26T22:36:57.662Z,0.90
2023-03-26T22:39:25.112Z,0.80
2023-03-26T22:41:52.253Z,0.90
2023-03-26T22:44:20.493Z,0.90
2023-03-26T22:46:51.402Z,0.90
2023-03-26T22:49:19.010Z,0.90
2023-03-26T22:51:46.107Z,0.80
2023-03-26T22:54:13.365Z,0.80
2023-03-26T22:56:41.749Z,0.80
2023-03-26T22:59:08.781Z,0.90
2023-03-26T23:01:36.430Z,0.90
2023-03-26T23:04:03.699Z,0.80
2023-03-26T23:06:31.772Z,0.80
2023-03-26T23:08:59.082Z,0.90
2023-03-26T23:11:26.761Z,0.80
2023-03-26T23:13:53.709Z,0.88
2023-03-26T23:16:25.827Z,0.80
2023-03-26T23:18:55.871Z,0.80
2023-03-26T23:21:23.905Z,0.80
2023-03-26T23:23:55.546Z,0.80
2023-03-26T23:26:23.906Z,0.90
2023-03-26T23:28:51.316Z,0.90
2023-03-26T23:31:18.375Z,0.80
2023-03-26T23:33:48.140Z,0.90
2023-03-26T23:36:19.055Z,0.90
2023-03-26T23:38:52.297Z,0.90
2023-03-26T23:41:23.496Z,0.80
2023-03-26T23:43:54.295Z,0.80
2023-03-26T23:46:34.837Z,0.90
2023-03-26T23:49:03.627Z,0.90
2023-03-26T23:51:32.004Z,0.80
2023-03-26T23:53:59.965Z,0.80
2023-03-26T23:56:30.297Z,0.90
2023-03-26T23:58:58.432Z,0.90
